createdAt,value
2023-02-26T00:01:01.281Z,42.78
2023-02-26T00:03:27.902Z,43.48
2023-02-26T00:05:54.280Z,44.78
2023-02-26T00:08:20.641Z,43.27
2023-02-26T00:10:47.828Z,40.85
2023-02-26T00:13:14.589Z,31.01
2023-02-26T00:15:41.215Z,27.39
2023-02-26T00:18:10.729Z,23.39
2023-02-26T00:20:37.390Z,20.69
2023-02-26T00:23:04.289Z,21.60
2023-02-26T00:25:30.654Z,18.80
2023-02-26T00:27:57.289Z,7.96
2023-02-26T00:30:23.913Z,4.04
2023-02-26T00:32:50.597Z,2.37
2023-02-26T00:35:17.471Z,0.42
2023-02-26T00:38:00.617Z,0.50
2023-02-26T00:40:30.520Z,0.00
2023-02-26T00:42:57.179Z,0.00
2023-02-26T00:45:23.850Z,0.00
2023-02-26T00:48:27.996Z,0.00
2023-02-26T00:51:07.949Z,0.00
2023-02-26T00:53:48.196Z,0.00
2023-02-26T00:56:14.794Z,0.00
2023-02-26T00:58:41.370Z,0.00
2023-02-26T01:01:07.783Z,0.00
2023-02-26T01:03:34.496Z,0.00
2023-02-26T01:06:01.089Z,0.00
2023-02-26T01:08:47.875Z,0.00
2023-02-26T01:11:14.468Z,0.00
2023-02-26T01:13:41.056Z,0.00
2023-02-26T01:16:09.624Z,0.00
2023-02-26T01:18:41.658Z,0.00
2023-02-26T01:21:09.888Z,0.00
2023-02-26T01:23:40.436Z,0.00
2023-02-26T01:26:10.682Z,0.00
2023-02-26T01:28:37.562Z,0.00
2023-02-26T01:31:05.750Z,0.00
2023-02-26T01:33:33.559Z,0.00
2023-02-26T01:36:10.662Z,0.00
2023-02-26T01:38:52.146Z,0.00
2023-02-26T01:41:56.176Z,0.00
2023-02-26T01:45:01.244Z,0.00
2023-02-26T01:47:36.283Z,0.00
2023-02-26T01:50:16.626Z,0.06
2023-02-26T01:52:49.416Z,0.00
2023-02-26T01:55:16.886Z,0.00
2023-02-26T01:57:43.703Z,0.88
2023-02-26T02:00:10.964Z,1.12
2023-02-26T02:02:37.430Z,1.18
2023-02-26T02:05:04.904Z,1.15
2023-02-26T02:07:31.283Z,1.51
2023-02-26T02:09:57.832Z,2.75
2023-02-26T02:12:26.764Z,5.02
2023-02-26T02:15:11.269Z,7.88
2023-02-26T02:18:01.124Z,9.41
2023-02-26T02:20:30.640Z,11.42
2023-02-26T02:23:15.141Z,12.35
2023-02-26T02:25:53.692Z,12.46
2023-02-26T02:28:35.237Z,12.70
2023-02-26T02:31:37.052Z,13.90
2023-02-26T02:34:14.219Z,14.01
2023-02-26T02:36:45.449Z,14.46
2023-02-26T02:39:25.375Z,14.88
2023-02-26T02:41:55.488Z,15.41
2023-02-26T02:44:22.714Z,15.49
2023-02-26T02:46:49.512Z,15.51
2023-02-26T02:49:47.158Z,14.91
2023-02-26T02:52:17.695Z,16.22
2023-02-26T02:54:49.850Z,15.52
2023-02-26T02:57:37.810Z,15.94
2023-02-26T03:00:10.571Z,15.04
2023-02-26T03:02:37.135Z,14.41
2023-02-26T03:05:03.713Z,13.31
2023-02-26T03:07:35.151Z,11.96
2023-02-26T03:10:01.562Z,11.55
2023-02-26T03:12:31.616Z,11.69
2023-02-26T03:14:58.447Z,11.48
2023-02-26T03:17:32.008Z,11.59
2023-02-26T03:20:13.605Z,11.68
2023-02-26T03:23:00.580Z,11.51
2023-02-26T03:25:35.893Z,11.47
2023-02-26T03:28:34.733Z,11.57
2023-02-26T03:31:12.775Z,10.93
2023-02-26T03:33:45.432Z,11.64
2023-02-26T03:36:14.971Z,11.07
2023-02-26T03:38:58.850Z,11.41
2023-02-26T03:41:42.037Z,11.17
2023-02-26T03:44:11.352Z,11.45
2023-02-26T03:46:41.433Z,11.83
2023-02-26T03:49:12.515Z,12.33
2023-02-26T03:51:38.911Z,11.29
2023-02-26T03:54:30.180Z,11.52
2023-02-26T03:56:56.735Z,11.53
2023-02-26T03:59:23.424Z,11.57
2023-02-26T04:02:00.521Z,12.30
2023-02-26T04:04:37.663Z,12.10
2023-02-26T04:07:04.209Z,11.73
2023-02-26T04:09:30.613Z,11.82
2023-02-26T04:11:56.978Z,11.70
2023-02-26T04:14:23.353Z,11.85
2023-02-26T04:16:50.053Z,11.95
2023-02-26T04:19:16.467Z,11.68
2023-02-26T04:21:42.823Z,11.62
2023-02-26T04:24:09.561Z,11.69
2023-02-26T04:26:35.936Z,12.15
2023-02-26T04:29:02.270Z,12.36
2023-02-26T04:31:29.886Z,12.63
2023-02-26T04:33:56.320Z,11.79
2023-02-26T04:36:22.939Z,11.72
2023-02-26T04:38:49.624Z,12.28
2023-02-26T04:41:16.011Z,11.99
2023-02-26T04:43:42.370Z,12.40
2023-02-26T04:46:08.761Z,13.00
2023-02-26T04:48:35.338Z,13.18
2023-02-26T04:51:01.722Z,15.18
2023-02-26T04:53:28.100Z,15.13
2023-02-26T04:55:54.457Z,15.89
2023-02-26T04:58:20.843Z,15.19
2023-02-26T05:00:50.942Z,15.33
2023-02-26T05:03:17.447Z,15.83
2023-02-26T05:05:43.986Z,16.03
2023-02-26T05:08:10.356Z,16.10
2023-02-26T05:10:36.750Z,15.75
2023-02-26T05:13:03.110Z,15.90
2023-02-26T05:15:29.530Z,16.20
2023-02-26T05:17:55.931Z,16.29
2023-02-26T05:20:22.384Z,16.63
2023-02-26T05:22:48.931Z,16.86
2023-02-26T05:25:15.361Z,16.58
2023-02-26T05:27:44.569Z,17.14
2023-02-26T05:30:13.346Z,16.85
2023-02-26T05:32:39.776Z,17.13
2023-02-26T05:35:06.524Z,15.14
2023-02-26T05:37:32.975Z,11.30
2023-02-26T05:39:59.476Z,11.70
2023-02-26T05:42:26.117Z,10.73
2023-02-26T05:44:52.479Z,10.49
2023-02-26T05:47:19.137Z,10.66
2023-02-26T05:49:45.553Z,10.80
2023-02-26T05:52:11.889Z,9.98
2023-02-26T05:54:38.493Z,9.84
2023-02-26T05:57:05.132Z,10.57
2023-02-26T05:59:31.512Z,10.59
2023-02-26T06:01:58.433Z,10.24
2023-02-26T06:04:24.847Z,10.13
2023-02-26T06:06:51.183Z,10.32
2023-02-26T06:09:17.710Z,10.51
2023-02-26T06:11:44.080Z,10.41
2023-02-26T06:14:10.610Z,10.79
2023-02-26T06:16:36.958Z,10.12
2023-02-26T06:19:03.506Z,10.24
2023-02-26T06:21:30.333Z,10.39
2023-02-26T06:23:56.701Z,10.44
2023-02-26T06:26:23.930Z,10.42
2023-02-26T06:28:50.424Z,10.21
2023-02-26T06:31:16.967Z,10.52
2023-02-26T06:33:43.374Z,10.57
2023-02-26T06:36:09.704Z,9.93
2023-02-26T06:38:36.226Z,9.65
2023-02-26T06:41:02.610Z,9.09
2023-02-26T06:43:28.957Z,8.41
2023-02-26T06:45:58.840Z,8.13
2023-02-26T06:48:25.898Z,7.22
2023-02-26T06:50:52.542Z,6.29
2023-02-26T06:53:18.924Z,6.82
2023-02-26T06:55:45.851Z,8.18
2023-02-26T06:58:12.432Z,10.74
2023-02-26T07:00:39.300Z,13.19
2023-02-26T07:03:05.775Z,15.50
2023-02-26T07:05:32.235Z,19.69
2023-02-26T07:07:58.603Z,27.99
2023-02-26T07:10:25.296Z,28.66
2023-02-26T07:12:51.740Z,28.46
2023-02-26T07:15:18.248Z,31.07
2023-02-26T07:17:44.608Z,36.72
2023-02-26T07:20:12.144Z,43.37
2023-02-26T07:22:38.505Z,48.87
2023-02-26T07:25:05.316Z,49.11
2023-02-26T07:27:33.259Z,52.44
2023-02-26T07:30:00.282Z,66.37
2023-02-26T07:32:26.671Z,74.01
2023-02-26T07:34:53.018Z,77.82
2023-02-26T07:37:19.555Z,79.16
2023-02-26T07:39:45.893Z,86.26
2023-02-26T07:42:12.371Z,98.18
2023-02-26T07:44:39.070Z,100.00
2023-02-26T07:47:05.443Z,100.00
2023-02-26T07:49:33.916Z,100.00
2023-02-26T07:52:00.457Z,100.00
2023-02-26T07:54:26.808Z,100.00
2023-02-26T07:56:53.205Z,100.00
2023-02-26T07:59:19.669Z,100.00
2023-02-26T08:01:46.089Z,100.00
2023-02-26T08:04:12.489Z,100.00
2023-02-26T08:06:39.099Z,100.00
2023-02-26T08:09:05.492Z,100.00
2023-02-26T08:11:34.072Z,100.00
2023-02-26T08:14:00.433Z,100.00
2023-02-26T08:16:27.008Z,100.00
2023-02-26T08:18:53.610Z,100.00
2023-02-26T08:21:20.242Z,100.00
2023-02-26T08:23:46.573Z,100.00
2023-02-26T08:26:13.996Z,100.00
2023-02-26T08:28:40.860Z,100.00
2023-02-26T08:31:07.384Z,100.00
2023-02-26T08:33:33.929Z,100.00
2023-02-26T08:36:01.849Z,100.00
2023-02-26T08:38:28.894Z,100.00
2023-02-26T08:40:55.302Z,100.00
2023-02-26T08:43:21.877Z,100.00
2023-02-26T08:45:48.607Z,100.00
2023-02-26T08:48:15.176Z,100.00
2023-02-26T08:50:41.749Z,100.00
2023-02-26T08:53:08.100Z,100.00
2023-02-26T08:55:34.489Z,100.00
2023-02-26T08:58:00.994Z,100.00
2023-02-26T09:00:27.358Z,100.00
2023-02-26T09:02:53.766Z,100.00
2023-02-26T09:05:20.163Z,100.00
2023-02-26T09:07:46.514Z,100.00
2023-02-26T09:10:15.302Z,100.00
2023-02-26T09:12:42.152Z,100.00
2023-02-26T09:15:09.326Z,100.00
2023-02-26T09:17:35.778Z,100.00
2023-02-26T09:20:02.580Z,100.00
2023-02-26T09:22:28.965Z,100.00
2023-02-26T09:24:55.360Z,100.00
2023-02-26T09:27:21.832Z,100.00
2023-02-26T09:29:48.212Z,100.00
2023-02-26T09:32:14.698Z,100.00
2023-02-26T09:34:41.321Z,100.00
2023-02-26T09:37:08.541Z,100.00
2023-02-26T09:39:35.256Z,100.00
2023-02-26T09:42:18.708Z,100.00
2023-02-26T09:44:45.087Z,100.00
2023-02-26T09:47:39.343Z,100.00
2023-02-26T09:50:10.879Z,100.00
2023-02-26T09:52:41.800Z,100.00
2023-02-26T09:55:18.345Z,100.00
2023-02-26T09:57:45.654Z,100.00
2023-02-26T10:00:27.153Z,100.00
2023-02-26T10:03:11.928Z,100.00
2023-02-26T10:06:00.940Z,100.00
2023-02-26T10:08:33.353Z,100.00
2023-02-26T10:11:10.937Z,100.00
2023-02-26T10:13:56.737Z,100.00
2023-02-26T10:16:27.993Z,100.00
2023-02-26T10:19:02.386Z,100.00
2023-02-26T10:21:50.999Z,100.00
2023-02-26T10:24:42.022Z,100.00
2023-02-26T10:27:18.923Z,100.00
2023-02-26T10:29:53.836Z,100.00
2023-02-26T10:32:23.207Z,100.00
2023-02-26T10:34:52.093Z,100.00
2023-02-26T10:37:28.489Z,100.00
2023-02-26T10:40:20.902Z,100.00
2023-02-26T10:43:00.249Z,100.00
2023-02-26T10:46:00.478Z,100.00
2023-02-26T10:48:39.078Z,100.00
2023-02-26T10:51:17.483Z,100.00
2023-02-26T10:53:45.741Z,100.00
2023-02-26T10:56:16.599Z,100.00
2023-02-26T10:58:42.956Z,100.00
2023-02-26T11:01:20.289Z,100.00
2023-02-26T11:03:48.721Z,100.00
2023-02-26T11:06:28.762Z,100.00
2023-02-26T11:08:56.306Z,100.00
2023-02-26T11:11:35.551Z,100.00
2023-02-26T11:14:01.927Z,100.00
2023-02-26T11:16:28.376Z,100.00
2023-02-26T11:18:54.938Z,100.00
2023-02-26T11:21:27.179Z,100.00
2023-02-26T11:24:06.431Z,100.00
2023-02-26T11:26:35.138Z,100.00
2023-02-26T11:29:01.598Z,100.00
2023-02-26T11:31:28.624Z,100.00
2023-02-26T11:34:05.959Z,100.00
2023-02-26T11:36:33.350Z,100.00
2023-02-26T11:39:17.866Z,100.00
2023-02-26T11:41:45.322Z,100.00
2023-02-26T11:44:13.733Z,100.00
2023-02-26T11:46:46.371Z,100.00
2023-02-26T11:49:14.446Z,100.00
2023-02-26T11:51:43.478Z,100.00
2023-02-26T11:54:24.274Z,100.00
2023-02-26T11:56:50.757Z,100.00
2023-02-26T11:59:17.078Z,100.00
2023-02-26T12:01:43.481Z,100.00
2023-02-26T12:04:11.596Z,100.00
2023-02-26T12:06:37.947Z,100.00
2023-02-26T12:09:04.439Z,100.00
2023-02-26T12:12:04.673Z,100.00
2023-02-26T12:14:52.882Z,100.00
2023-02-26T12:17:34.080Z,100.00
2023-02-26T12:20:19.869Z,100.00
2023-02-26T12:22:47.022Z,100.00
2023-02-26T12:25:21.669Z,100.00
2023-02-26T12:28:25.204Z,100.00
2023-02-26T12:31:08.466Z,100.00
2023-02-26T12:34:19.877Z,100.00
2023-02-26T12:36:52.270Z,100.00
2023-02-26T12:39:37.507Z,100.00
2023-02-26T12:42:09.997Z,100.00
2023-02-26T12:44:57.363Z,100.00
2023-02-26T12:47:23.727Z,100.00
2023-02-26T12:50:07.267Z,100.00
2023-02-26T12:53:03.393Z,100.00
2023-02-26T12:56:23.451Z,100.00
2023-02-26T12:59:04.784Z,100.00
2023-02-26T13:01:37.217Z,98.72
2023-02-26T13:04:58.246Z,100.00
2023-02-26T13:07:49.324Z,100.00
2023-02-26T13:10:47.165Z,100.00
2023-02-26T13:13:16.584Z,100.00
2023-02-26T13:16:01.523Z,100.00
2023-02-26T13:18:58.918Z,100.00
2023-02-26T13:21:27.606Z,100.00
2023-02-26T13:24:06.466Z,100.00
2023-02-26T13:26:33.436Z,100.00
2023-02-26T13:29:01.723Z,100.00
2023-02-26T13:31:37.193Z,100.00
2023-02-26T13:34:06.914Z,100.00
2023-02-26T13:36:35.277Z,100.00
2023-02-26T13:39:32.422Z,100.00
2023-02-26T13:42:29.675Z,96.56
2023-02-26T13:45:34.376Z,97.57
2023-02-26T13:48:22.500Z,97.67
2023-02-26T13:51:21.352Z,98.72
2023-02-26T13:53:51.560Z,98.05
2023-02-26T13:56:33.064Z,98.24
2023-02-26T13:59:23.814Z,97.62
2023-02-26T14:01:53.917Z,97.36
2023-02-26T14:04:22.219Z,97.04
2023-02-26T14:06:56.680Z,96.02
2023-02-26T14:09:23.026Z,95.59
2023-02-26T14:11:55.515Z,96.01
2023-02-26T14:14:22.062Z,96.84
2023-02-26T14:16:52.384Z,96.59
2023-02-26T14:19:26.849Z,97.41
2023-02-26T14:21:58.814Z,97.45
2023-02-26T14:24:36.680Z,97.73
2023-02-26T14:27:12.503Z,98.53
2023-02-26T14:29:58.483Z,98.84
2023-02-26T14:32:32.904Z,98.95
2023-02-26T14:35:10.345Z,98.95
2023-02-26T14:37:37.906Z,99.11
2023-02-26T14:40:19.401Z,100.00
2023-02-26T14:42:48.316Z,99.81
2023-02-26T14:45:17.617Z,100.00
2023-02-26T14:47:47.518Z,100.00
2023-02-26T14:50:18.928Z,100.00
2023-02-26T14:53:06.239Z,100.00
2023-02-26T14:55:45.383Z,100.00
2023-02-26T14:58:27.916Z,100.00
2023-02-26T15:01:31.870Z,100.00
2023-02-26T15:04:08.177Z,100.00
2023-02-26T15:07:13.488Z,100.00
2023-02-26T15:09:51.948Z,100.00
2023-02-26T15:12:35.958Z,100.00
2023-02-26T15:15:11.760Z,100.00
2023-02-26T15:17:41.088Z,100.00
2023-02-26T15:20:14.535Z,100.00
2023-02-26T15:22:58.512Z,100.00
2023-02-26T15:25:44.101Z,100.00
2023-02-26T15:28:38.401Z,100.00
2023-02-26T15:31:06.512Z,100.00
2023-02-26T15:33:32.972Z,100.00
2023-02-26T15:36:06.565Z,100.00
2023-02-26T15:38:49.344Z,100.00
2023-02-26T15:41:16.167Z,100.00
2023-02-26T15:43:48.056Z,100.00
2023-02-26T15:46:15.117Z,100.00
2023-02-26T15:48:44.516Z,100.00
2023-02-26T15:51:12.769Z,100.00
2023-02-26T15:53:49.973Z,100.00
2023-02-26T15:56:28.724Z,100.00
2023-02-26T15:59:00.645Z,100.00
2023-02-26T16:01:28.106Z,100.00
2023-02-26T16:03:58.075Z,100.00
2023-02-26T16:06:28.985Z,100.00
2023-02-26T16:08:55.481Z,100.00
2023-02-26T16:11:21.883Z,100.00
2023-02-26T16:13:49.636Z,100.00
2023-02-26T16:16:22.210Z,100.00
2023-02-26T16:18:48.582Z,100.00
2023-02-26T16:21:38.489Z,100.00
2023-02-26T16:24:05.353Z,100.00
2023-02-26T16:26:34.118Z,100.00
2023-02-26T16:29:03.201Z,100.00
2023-02-26T16:31:31.564Z,100.00
2023-02-26T16:34:03.609Z,100.00
2023-02-26T16:36:38.350Z,100.00
2023-02-26T16:39:04.682Z,100.00
2023-02-26T16:41:33.827Z,100.00
2023-02-26T16:44:01.464Z,100.00
2023-02-26T16:46:30.931Z,100.00
2023-02-26T16:49:11.467Z,100.00
2023-02-26T16:51:38.515Z,100.00
2023-02-26T16:54:08.749Z,100.00
2023-02-26T16:56:38.878Z,100.00
2023-02-26T16:59:07.893Z,100.00
2023-02-26T17:01:48.306Z,100.00
2023-02-26T17:04:15.565Z,100.00
2023-02-26T17:06:42.417Z,100.00
2023-02-26T17:09:35.590Z,100.00
2023-02-26T17:12:11.735Z,100.00
2023-02-26T17:14:40.911Z,100.00
2023-02-26T17:17:07.393Z,100.00
2023-02-26T17:19:34.047Z,100.00
2023-02-26T17:22:00.459Z,100.00
2023-02-26T17:24:31.050Z,100.00
2023-02-26T17:26:57.451Z,100.00
2023-02-26T17:29:38.832Z,100.00
2023-02-26T17:32:06.110Z,100.00
2023-02-26T17:34:32.903Z,100.00
2023-02-26T17:36:59.757Z,100.00
2023-02-26T17:39:26.128Z,100.00
2023-02-26T17:41:52.619Z,100.00
2023-02-26T17:44:19.705Z,100.00
2023-02-26T17:46:46.158Z,100.00
2023-02-26T17:49:12.561Z,100.00
2023-02-26T17:51:39.412Z,100.00
2023-02-26T17:54:05.832Z,100.00
2023-02-26T17:56:32.905Z,100.00
2023-02-26T17:58:59.443Z,100.00
2023-02-26T18:01:29.941Z,100.00
2023-02-26T18:03:56.923Z,100.00
2023-02-26T18:06:24.050Z,100.00
2023-02-26T18:08:50.596Z,100.00
2023-02-26T18:11:17.320Z,100.00
2023-02-26T18:13:43.737Z,100.00
2023-02-26T18:16:14.941Z,100.00
2023-02-26T18:18:41.303Z,100.00
2023-02-26T18:21:08.024Z,100.00
2023-02-26T18:23:34.423Z,100.00
2023-02-26T18:26:02.542Z,100.00
2023-02-26T18:28:28.966Z,100.00
2023-02-26T18:30:56.058Z,100.00
2023-02-26T18:33:22.647Z,100.00
2023-02-26T18:35:53.015Z,100.00
2023-02-26T18:38:20.157Z,100.00
2023-02-26T18:40:46.997Z,100.00
2023-02-26T18:43:13.558Z,100.00
2023-02-26T18:45:44.155Z,100.00
2023-02-26T18:48:12.136Z,100.00
2023-02-26T18:50:38.570Z,100.00
2023-02-26T18:53:04.928Z,100.00
2023-02-26T18:55:31.341Z,100.00
2023-02-26T18:57:57.749Z,100.00
2023-02-26T19:00:24.260Z,100.00
2023-02-26T19:02:50.822Z,100.00
2023-02-26T19:05:18.682Z,100.00
2023-02-26T19:07:45.133Z,100.00
2023-02-26T19:10:14.465Z,100.00
2023-02-26T19:12:41.365Z,100.00
2023-02-26T19:15:08.297Z,100.00
2023-02-26T19:17:34.728Z,100.00
2023-02-26T19:20:01.339Z,100.00
2023-02-26T19:22:27.737Z,100.00
2023-02-26T19:24:54.754Z,100.00
2023-02-26T19:27:21.129Z,100.00
2023-02-26T19:29:47.562Z,100.00
2023-02-26T19:32:15.182Z,100.00
2023-02-26T19:34:41.871Z,100.00
2023-02-26T19:37:10.537Z,100.00
2023-02-26T19:39:37.504Z,100.00
2023-02-26T19:42:04.002Z,100.00
2023-02-26T19:44:32.445Z,100.00
2023-02-26T19:46:59.103Z,100.00
2023-02-26T19:49:25.522Z,100.00
2023-02-26T19:51:51.940Z,100.00
2023-02-26T19:54:18.398Z,100.00
2023-02-26T19:56:45.013Z,100.00
2023-02-26T19:59:12.291Z,100.00
2023-02-26T20:01:39.677Z,100.00
2023-02-26T20:04:06.078Z,100.00
2023-02-26T20:06:32.608Z,100.00
2023-02-26T20:08:58.948Z,100.00
2023-02-26T20:11:25.804Z,100.00
2023-02-26T20:13:52.404Z,100.00
2023-02-26T20:16:18.912Z,100.00
2023-02-26T20:18:46.104Z,100.00
2023-02-26T20:21:12.572Z,100.00
2023-02-26T20:23:39.340Z,100.00
2023-02-26T20:26:08.172Z,100.00
2023-02-26T20:28:34.591Z,100.00
2023-02-26T20:31:01.081Z,100.00
2023-02-26T20:33:27.645Z,100.00
2023-02-26T20:35:54.198Z,100.00
2023-02-26T20:38:20.862Z,100.00
2023-02-26T20:40:47.703Z,100.00
2023-02-26T20:43:14.230Z,100.00
2023-02-26T20:45:40.849Z,100.00
2023-02-26T20:48:07.546Z,100.00
2023-02-26T20:50:34.876Z,100.00
2023-02-26T20:53:01.282Z,100.00
2023-02-26T20:55:27.636Z,100.00
2023-02-26T20:57:55.116Z,100.00
2023-02-26T21:00:21.878Z,100.00
2023-02-26T21:02:48.258Z,100.00
2023-02-26T21:05:15.056Z,100.00
2023-02-26T21:07:41.568Z,100.00
2023-02-26T21:10:11.533Z,100.00
2023-02-26T21:12:38.036Z,100.00
2023-02-26T21:15:05.393Z,100.00
2023-02-26T21:17:32.571Z,100.00
2023-02-26T21:19:59.149Z,100.00
2023-02-26T21:22:25.487Z,100.00
2023-02-26T21:24:51.846Z,100.00
2023-02-26T21:27:18.206Z,100.00
2023-02-26T21:29:44.552Z,100.00
2023-02-26T21:32:11.033Z,100.00
2023-02-26T21:34:37.411Z,100.00
2023-02-26T21:37:05.514Z,100.00
2023-02-26T21:39:32.520Z,100.00
2023-02-26T21:42:00.221Z,100.00
2023-02-26T21:44:27.052Z,100.00
2023-02-26T21:46:53.487Z,100.00
2023-02-26T21:49:19.857Z,100.00
2023-02-26T21:51:46.214Z,100.00
2023-02-26T21:54:12.753Z,100.00
2023-02-26T21:56:39.104Z,100.00
2023-02-26T21:59:05.554Z,100.00
2023-02-26T22:01:31.981Z,100.00
2023-02-26T22:03:58.394Z,99.87
2023-02-26T22:06:24.752Z,97.45
2023-02-26T22:08:51.120Z,96.16
2023-02-26T22:11:17.490Z,95.63
2023-02-26T22:13:43.905Z,94.71
2023-02-26T22:16:10.345Z,94.47
2023-02-26T22:18:37.112Z,92.10
2023-02-26T22:21:03.643Z,91.99
2023-02-26T22:23:29.980Z,93.00
2023-02-26T22:25:56.318Z,92.71
2023-02-26T22:28:22.775Z,92.59
2023-02-26T22:30:49.200Z,90.73
2023-02-26T22:33:15.637Z,90.20
2023-02-26T22:35:43.179Z,83.34
2023-02-26T22:38:09.596Z,79.91
2023-02-26T22:40:36.361Z,79.97
2023-02-26T22:43:04.113Z,79.91
2023-02-26T22:45:30.513Z,80.39
2023-02-26T22:47:57.061Z,79.58
2023-02-26T22:50:23.528Z,77.49
2023-02-26T22:52:49.886Z,74.42
2023-02-26T22:55:16.553Z,70.99
2023-02-26T22:57:42.901Z,70.95
2023-02-26T23:00:18.698Z,69.69
2023-02-26T23:02:46.288Z,69.45
2023-02-26T23:05:12.701Z,69.62
2023-02-26T23:07:39.720Z,70.27
2023-02-26T23:10:10.430Z,71.63
2023-02-26T23:12:37.142Z,74.56
2023-02-26T23:15:03.595Z,75.53
2023-02-26T23:17:30.257Z,76.77
2023-02-26T23:19:56.658Z,75.82
2023-02-26T23:22:23.128Z,76.15
2023-02-26T23:24:49.673Z,76.46
2023-02-26T23:27:16.115Z,74.38
2023-02-26T23:29:42.554Z,73.83
2023-02-26T23:32:09.193Z,72.89
2023-02-26T23:34:35.576Z,72.50
2023-02-26T23:37:01.940Z,73.73
2023-02-26T23:39:28.714Z,74.77
2023-02-26T23:41:56.109Z,72.99
2023-02-26T23:44:22.792Z,73.39
2023-02-26T23:46:49.311Z,72.33
2023-02-26T23:49:18.540Z,73.09
2023-02-26T23:51:48.052Z,72.55
2023-02-26T23:54:14.438Z,72.89
2023-02-26T23:56:40.831Z,75.00
2023-02-26T23:59:07.716Z,75.43
